Time;durP1;ratioP1;P1;durP2;ratioP2;P2;SDS_P1;SDS_P2;PMS_P1;PMS_P2;Temp;Humidity;BMP_temperature;BMP_pressure;BME280_temperature;BME280_humidity;BME280_pressure;Samples;Min_cycle;Max_cycle;Signal;HPM_P1;HPM_P2
2024/03/10 00:01:06;;;;;;;22.60;11.53;;;7.70;11.80;;;;;;5075403;28;20561;-66
2024/03/10 00:03:33;;;;;;;25.20;11.90;;;7.70;11.80;;;;;;5067211;28;20474;-65
2024/03/10 00:06:00;;;;;;;20.43;11.53;;;7.80;11.80;;;;;;5071250;28;20834;-65
2024/03/10 00:08:26;;;;;;;18.83;10.83;;;7.80;11.80;;;;;;5055033;28;20451;-65
2024/03/10 00:10:53;;;;;;;20.67;11.57;;;7.90;11.90;;;;;;5063196;28;20466;-65
2024/03/10 00:13:20;;;;;;;15.90;9.63;;;7.90;11.90;;;;;;5055065;28;20486;-65
2024/03/10 00:15:49;;;;;;;21.23;10.13;;;8.00;11.90;;;;;;5056327;28;20463;-65
2024/03/10 00:18:16;;;;;;;19.40;9.80;;;8.10;12.00;;;;;;5075002;28;20886;-66
2024/03/10 00:20:44;;;;;;;18.60;9.53;;;8.10;12.00;;;;;;5070666;28;20478;-65
2024/03/10 00:23:11;;;;;;;21.70;9.83;;;8.10;12.00;;;;;;5070187;28;20478;-65
2024/03/10 00:25:38;;;;;;;19.47;10.67;;;8.00;12.00;;;;;;5062601;28;20450;-65
2024/03/10 00:28:06;;;;;;;21.57;11.90;;;8.10;12.00;;;;;;5054991;28;20472;-65
2024/03/10 00:30:33;;;;;;;19.47;11.47;;;8.20;12.10;;;;;;5054879;28;20451;-65
2024/03/10 00:33:01;;;;;;;19.17;11.23;;;8.40;12.20;;;;;;5065960;28;20531;-65
2024/03/10 00:35:29;;;;;;;17.83;9.60;;;8.70;11.30;;;;;;5059107;28;20982;-65
2024/03/10 00:37:56;;;;;;;19.60;10.27;;;8.80;5.10;;;;;;5073876;28;20458;-65
2024/03/10 00:40:23;;;;;;;18.60;11.23;;;9.00;5.10;;;;;;5059880;28;20494;-66
2024/03/10 00:42:50;;;;;;;18.33;10.80;;;9.10;5.20;;;;;;5056630;28;20475;-65
2024/03/10 00:45:17;;;;;;;17.40;9.40;;;9.20;5.20;;;;;;5060477;28;20451;-66
2024/03/10 00:47:45;;;;;;;18.80;10.20;;;9.20;5.20;;;;;;5062776;28;20459;-66
2024/03/10 00:50:13;;;;;;;22.37;9.50;;;9.30;5.30;;;;;;5067498;28;20453;-65
2024/03/10 00:52:40;;;;;;;18.87;11.07;;;9.30;3.10;;;;;;5057422;28;20474;-65
2024/03/10 00:55:09;;;;;;;15.13;9.70;;;9.40;4.30;;;;;;5069947;28;20447;-65
2024/03/10 00:57:37;;;;;;;15.20;9.43;;;9.50;3.00;;;;;;5062648;28;20461;-65
2024/03/10 01:00:05;;;;;;;16.17;10.10;;;9.50;1.00;;;;;;5070620;28;20482;-65
2024/03/10 01:02:32;;;;;;;17.80;9.40;;;9.60;1.00;;;;;;5060606;28;20470;-66
2024/03/10 01:04:58;;;;;;;18.10;10.07;;;9.60;1.00;;;;;;5057182;28;20454;-65
2024/03/10 01:07:27;;;;;;;17.10;10.23;;;9.60;1.00;;;;;;5074098;28;20464;-65
2024/03/10 01:09:53;;;;;;;17.70;9.50;;;9.50;1.00;;;;;;5055453;28;20473;-65
2024/03/10 01:12:21;;;;;;;18.33;9.93;;;9.40;1.00;;;;;;5067973;28;20482;-65
2024/03/10 01:14:48;;;;;;;16.07;9.67;;;9.40;1.00;;;;;;5073841;28;20515;-65
2024/03/10 01:17:15;;;;;;;14.60;7.50;;;9.40;1.00;;;;;;5060065;28;20459;-66
2024/03/10 01:19:43;;;;;;;14.93;8.87;;;9.40;1.00;;;;;;5061763;28;20471;-65
2024/03/10 01:22:10;;;;;;;19.50;9.73;;;9.50;1.00;;;;;;5063827;28;20447;-65
2024/03/10 01:24:38;;;;;;;17.60;8.80;;;9.40;1.00;;;;;;5057122;28;20984;-65
2024/03/10 01:27:05;;;;;;;18.17;9.57;;;9.40;1.00;;;;;;5065267;28;20450;-65
2024/03/10 01:29:32;;;;;;;15.70;8.70;;;9.30;1.00;;;;;;5058070;28;20530;-65
2024/03/10 01:31:59;;;;;;;17.93;9.83;;;9.30;1.00;;;;;;5073371;28;20507;-65
2024/03/10 01:34:26;;;;;;;17.17;9.50;;;9.30;1.00;;;;;;5058900;28;20975;-65
2024/03/10 01:36:53;;;;;;;17.00;9.00;;;9.40;1.00;;;;;;5055936;28;20520;-66
2024/03/10 01:39:20;;;;;;;19.07;10.87;;;9.30;1.00;;;;;;5068015;28;20482;-66
2024/03/10 01:41:48;;;;;;;18.80;9.27;;;9.30;1.00;;;;;;5063076;28;20459;-65
2024/03/10 01:44:15;;;;;;;18.47;9.37;;;9.20;1.00;;;;;;5059778;28;20477;-65
2024/03/10 01:46:43;;;;;;;19.77;9.87;;;9.20;1.00;;;;;;5061046;28;20966;-65
2024/03/10 01:49:09;;;;;;;16.60;9.50;;;9.10;1.40;;;;;;5065985;28;20489;-65
2024/03/10 01:51:38;;;;;;;18.60;10.70;;;9.10;1.20;;;;;;5064549;28;20446;-65
2024/03/10 01:54:07;;;;;;;16.57;9.70;;;9.10;1.80;;;;;;5059088;28;21005;-65
2024/03/10 01:56:34;;;;;;;15.33;9.17;;;9.10;3.50;;;;;;5052836;28;20497;-66
2024/03/10 01:59:02;;;;;;;16.00;8.80;;;9.10;3.40;;;;;;5072504;28;20450;-65
2024/03/10 02:01:29;;;;;;;16.93;9.03;;;9.10;1.00;;;;;;5068043;28;20450;-66
2024/03/10 02:03:56;;;;;;;15.30;8.33;;;9.20;1.00;;;;;;5056092;28;20467;-66
2024/03/10 02:06:23;;;;;;;15.87;9.37;;;9.30;1.00;;;;;;5063844;28;20450;-66
2024/03/10 02:08:50;;;;;;;16.03;9.70;;;9.30;1.00;;;;;;5072853;28;20450;-65
2024/03/10 02:11:20;;;;;;;18.23;9.90;;;9.30;1.00;;;;;;5058965;28;20448;-65
2024/03/10 02:13:47;;;;;;;14.70;8.37;;;9.30;1.00;;;;;;5068843;28;20557;-65
2024/03/10 02:16:16;;;;;;;12.70;8.17;;;9.20;1.00;;;;;;5057453;28;20555;-66
2024/03/10 02:18:43;;;;;;;16.67;9.23;;;9.20;1.00;;;;;;5064422;28;20448;-65
2024/03/10 02:21:11;;;;;;;16.33;8.20;;;9.10;4.90;;;;;;5060117;28;20490;-65
2024/03/10 02:23:41;;;;;;;16.60;9.23;;;9.10;3.30;;;;;;5069124;28;20561;-66
2024/03/10 02:26:09;;;;;;;18.23;10.00;;;9.10;5.10;;;;;;5072815;28;20457;-65
2024/03/10 02:28:46;;;;;;;13.47;8.10;;;9.10;5.20;;;;;;5072395;28;20454;-65
2024/03/10 02:47:40;;;;;;;16.30;9.50;;;9.20;1.00;;;;;;5063226;28;20434;-66
2024/03/10 02:50:07;;;;;;;15.53;8.73;;;9.20;2.90;;;;;;5067625;28;20970;-66
2024/03/10 02:52:34;;;;;;;15.60;8.33;;;9.20;1.10;;;;;;5068335;28;20545;-66
2024/03/10 02:55:03;;;;;;;15.20;7.80;;;9.20;1.00;;;;;;5062972;28;20447;-66
2024/03/10 02:57:31;;;;;;;14.40;8.73;;;9.20;1.00;;;;;;5053449;28;20965;-66
2024/03/10 02:59:58;;;;;;;15.67;8.00;;;9.10;1.60;;;;;;5068215;28;20515;-65
2024/03/10 03:02:25;;;;;;;14.60;8.53;;;9.10;1.00;;;;;;5058574;28;20465;-65
2024/03/10 03:04:52;;;;;;;14.37;8.33;;;9.20;1.00;;;;;;5055373;28;20467;-66
2024/03/10 03:07:18;;;;;;;14.40;8.57;;;9.20;1.00;;;;;;5071692;28;20817;-66
2024/03/10 03:09:45;;;;;;;17.37;8.17;;;9.20;1.00;;;;;;5055442;28;20455;-66
2024/03/10 03:12:13;;;;;;;15.53;8.13;;;9.20;1.00;;;;;;5071705;28;20504;-66
2024/03/10 03:14:41;;;;;;;16.67;9.17;;;9.10;2.80;;;;;;5054920;28;20440;-66
2024/03/10 03:17:08;;;;;;;14.70;8.43;;;9.00;3.70;;;;;;5058960;28;20960;-66
2024/03/10 03:19:36;;;;;;;15.97;9.30;;;8.80;5.00;;;;;;5067973;28;21112;-66
2024/03/10 03:22:04;;;;;;;15.27;8.50;;;8.60;4.80;;;;;;5060114;28;20507;-66
2024/03/10 03:24:31;;;;;;;16.23;8.20;;;8.40;4.70;;;;;;5067114;28;21030;-65
2024/03/10 03:26:58;;;;;;;15.03;8.57;;;8.30;4.80;;;;;;5067864;28;20470;-66
2024/03/10 03:29:24;;;;;;;18.00;9.27;;;8.20;10.20;;;;;;5051601;28;20455;-66
2024/03/10 03:31:53;;;;;;;20.57;8.10;;;8.30;8.60;;;;;;5051677;28;20458;-66
2024/03/10 03:34:21;;;;;;;11.83;7.60;;;8.20;9.40;;;;;;5051567;28;20482;-66
2024/03/10 03:36:48;;;;;;;17.30;9.37;;;8.30;4.80;;;;;;5069373;28;20520;-66
2024/03/10 03:39:15;;;;;;;15.17;8.37;;;8.30;4.70;;;;;;5057868;28;20451;-66
2024/03/10 03:41:42;;;;;;;16.80;9.20;;;8.40;4.70;;;;;;5062985;28;20481;-65
2024/03/10 03:44:08;;;;;;;15.50;8.20;;;8.30;4.70;;;;;;5071278;28;20485;-66
2024/03/10 03:46:35;;;;;;;15.43;7.63;;;8.40;4.70;;;;;;5063309;28;20943;-66
2024/03/10 03:49:04;;;;;;;16.87;8.40;;;8.40;4.70;;;;;;5055210;28;20442;-66
2024/03/10 03:51:31;;;;;;;16.93;8.33;;;8.30;4.70;;;;;;5064215;28;20444;-66
2024/03/10 03:53:57;;;;;;;16.67;7.83;;;8.30;4.90;;;;;;5062240;28;20484;-66
2024/03/10 03:56:24;;;;;;;11.97;7.70;;;8.30;4.90;;;;;;5064372;28;21009;-66
2024/03/10 03:58:51;;;;;;;17.00;7.97;;;8.40;4.90;;;;;;5052976;28;20449;-66
2024/03/10 04:01:17;;;;;;;12.27;8.23;;;8.40;4.70;;;;;;5057408;28;20573;-66
2024/03/10 04:03:44;;;;;;;13.23;7.43;;;8.50;4.80;;;;;;5069134;28;20506;-66
2024/03/10 04:06:14;;;;;;;16.80;8.40;;;8.30;11.00;;;;;;5071054;28;20454;-66
2024/03/10 04:08:41;;;;;;;15.53;8.57;;;8.20;12.10;;;;;;5055074;28;20487;-66
2024/03/10 04:11:08;;;;;;;18.63;9.97;;;8.10;12.00;;;;;;5067409;28;20458;-66
2024/03/10 04:13:35;;;;;;;16.97;8.80;;;7.90;11.80;;;;;;5059389;28;20470;-66
2024/03/10 04:16:02;;;;;;;16.60;8.10;;;7.80;11.80;;;;;;5057419;28;20450;-66
2024/03/10 04:18:28;;;;;;;12.83;7.60;;;7.70;11.80;;;;;;5058094;28;20457;-68
2024/03/10 04:20:55;;;;;;;14.50;8.97;;;7.70;18.90;;;;;;5061555;28;20463;-69
2024/03/10 04:23:24;;;;;;;15.00;8.90;;;7.50;19.30;;;;;;5052900;28;20471;-69
2024/03/10 04:25:52;;;;;;;15.27;9.10;;;7.40;26.00;;;;;;5056331;28;20447;-66
2024/03/10 04:28:19;;;;;;;15.23;8.80;;;7.30;25.90;;;;;;5061027;28;20844;-69
2024/03/10 04:30:46;;;;;;;13.40;8.60;;;7.20;25.80;;;;;;5050463;28;21116;-66
2024/03/10 04:33:14;;;;;;;25.80;13.27;;;7.10;25.80;;;;;;5053895;28;20463;-68
2024/03/10 04:35:40;;;;;;;17.00;9.40;;;7.00;25.70;;;;;;5052146;28;20455;-65
2024/03/10 04:38:07;;;;;;;21.73;9.53;;;7.00;25.80;;;;;;5057894;28;20451;-66
2024/03/10 04:40:35;;;;;;;22.47;10.27;;;6.90;28.90;;;;;;5068888;28;20587;-66
2024/03/10 04:43:02;;;;;;;19.60;10.73;;;6.90;25.70;;;;;;5069840;28;20501;-66
2024/03/10 04:45:29;;;;;;;23.23;10.80;;;6.80;25.60;;;;;;5073160;28;20446;-65
2024/03/10 04:47:56;;;;;;;18.23;9.50;;;6.80;25.60;;;;;;5074282;28;20456;-66
2024/03/10 04:50:24;;;;;;;20.43;9.87;;;6.90;25.70;;;;;;5074258;28;20822;-66
2024/03/10 04:52:52;;;;;;;17.47;9.70;;;7.00;29.30;;;;;;5072370;28;20556;-66
2024/03/10 04:55:20;;;;;;;17.30;9.87;;;7.00;33.40;;;;;;5059634;28;20451;-66
2024/03/10 04:57:48;;;;;;;17.60;10.40;;;6.90;33.40;;;;;;5065924;28;20478;-66
2024/03/10 05:00:18;;;;;;;18.23;11.33;;;6.90;35.30;;;;;;5056569;28;20880;-65
2024/03/10 05:02:46;;;;;;;15.83;9.73;;;6.90;38.50;;;;;;5060104;28;20521;-66
2024/03/10 05:05:13;;;;;;;20.67;10.30;;;6.90;37.40;;;;;;5060599;28;20974;-68
2024/03/10 05:07:40;;;;;;;27.10;13.43;;;6.90;33.40;;;;;;5067642;28;20453;-66
2024/03/10 05:10:08;;;;;;;18.20;11.17;;;6.90;33.70;;;;;;5055189;28;20454;-66
2024/03/10 05:12:35;;;;;;;16.50;9.10;;;6.90;33.30;;;;;;5061613;28;20990;-66
2024/03/10 05:15:04;;;;;;;14.33;9.27;;;7.00;33.50;;;;;;5061163;28;21014;-66
2024/03/10 05:17:31;;;;;;;21.90;10.93;;;6.90;41.20;;;;;;5069890;28;20453;-66
2024/03/10 05:19:58;;;;;;;17.93;10.50;;;6.80;42.10;;;;;;5061626;28;20458;-66
2024/03/10 05:22:25;;;;;;;16.60;10.47;;;6.80;42.10;;;;;;5061486;28;20539;-66
2024/03/10 05:24:52;;;;;;;24.20;12.53;;;6.70;42.00;;;;;;5063663;28;20454;-66
2024/03/10 05:27:20;;;;;;;15.50;10.37;;;6.70;42.00;;;;;;5064972;28;20447;-66
2024/03/10 05:29:47;;;;;;;16.37;11.73;;;6.70;43.40;;;;;;5062917;28;20453;-66
2024/03/10 05:32:15;;;;;;;20.57;12.80;;;6.60;47.30;;;;;;5061379;28;20454;-69
2024/03/10 05:34:42;;;;;;;21.27;12.43;;;6.60;43.30;;;;;;5064730;28;20447;-69
2024/03/10 05:37:09;;;;;;;19.17;13.33;;;6.70;42.00;;;;;;5060007;28;20451;-66
2024/03/10 05:39:36;;;;;;;16.03;10.10;;;6.60;45.40;;;;;;5056490;28;20459;-66
2024/03/10 05:42:05;;;;;;;14.50;9.80;;;6.70;42.00;;;;;;5049148;28;20474;-65
2024/03/10 05:44:31;;;;;;;14.63;10.03;;;6.80;42.10;;;;;;5055603;28;21015;-66
2024/03/10 05:46:58;;;;;;;14.20;8.30;;;6.80;42.10;;;;;;5060819;28;20817;-65
2024/03/10 05:49:26;;;;;;;15.53;8.73;;;6.80;42.10;;;;;;5061203;28;20459;-66
2024/03/10 05:51:54;;;;;;;16.53;9.70;;;6.80;42.10;;;;;;5053091;28;20451;-65
2024/03/10 05:54:21;;;;;;;18.67;10.90;;;6.80;42.10;;;;;;5058380;28;20872;-65
2024/03/10 05:56:48;;;;;;;15.73;10.17;;;6.80;42.10;;;;;;5070646;28;20867;-65
2024/03/10 05:59:14;;;;;;;16.63;10.10;;;6.80;42.10;;;;;;5061166;28;20460;-66
2024/03/10 06:01:41;;;;;;;18.70;9.43;;;6.90;42.20;;;;;;5061520;28;20478;-65
2024/03/10 06:04:09;;;;;;;20.20;10.97;;;6.80;59.20;;;;;;5060014;28;20467;-66
2024/03/10 06:06:38;;;;;;;19.07;16.73;;;6.60;59.00;;;;;;5060237;28;20457;-66
2024/03/10 06:09:05;;;;;;;23.63;21.23;;;6.40;60.30;;;;;;5068453;28;20826;-65
2024/03/10 06:11:32;;;;;;;29.90;27.13;;;6.40;67.40;;;;;;5061522;28;20455;-66
2024/03/10 06:13:59;;;;;;;27.00;22.93;;;6.30;69.40;;;;;;5069854;28;20471;-65
2024/03/10 06:16:26;;;;;;;25.70;23.00;;;6.20;73.20;;;;;;5059101;28;20450;-65
2024/03/10 06:27:07;;;;;;;24.77;20.10;;;6.10;74.50;;;;;;5061386;28;21044;-65
2024/03/10 06:29:34;;;;;;;24.50;14.33;;;6.10;74.60;;;;;;5069030;28;21045;-65
2024/03/10 06:32:00;;;;;;;22.70;17.57;;;6.10;74.60;;;;;;5063582;28;20837;-66
2024/03/10 06:34:27;;;;;;;25.57;18.07;;;6.10;74.60;;;;;;5062967;28;20477;-65
2024/03/10 06:36:55;;;;;;;26.27;19.77;;;6.10;74.50;;;;;;5054368;28;20451;-65
2024/03/10 06:39:24;;;;;;;24.03;16.83;;;6.20;74.60;;;;;;5066482;28;20454;-66
2024/03/10 06:41:51;;;;;;;30.67;17.80;;;6.20;67.90;;;;;;5053418;28;20482;-65
2024/03/10 06:44:19;;;;;;;32.47;18.00;;;6.40;67.00;;;;;;5058494;28;20470;-66
2024/03/10 06:46:46;;;;;;;28.23;20.80;;;6.40;64.80;;;;;;5057036;28;20462;-65
2024/03/10 06:49:13;;;;;;;25.60;18.50;;;6.50;67.00;;;;;;5052518;28;20457;-66
2024/03/10 06:51:40;;;;;;;31.43;20.57;;;6.50;67.00;;;;;;5058940;28;20447;-66
2024/03/10 06:54:08;;;;;;;27.63;24.73;;;6.60;67.20;;;;;;5064143;28;20834;-65
2024/03/10 06:56:35;;;;;;;32.10;23.40;;;6.70;59.20;;;;;;5060575;28;20507;-66
2024/03/10 06:59:03;;;;;;;26.77;20.83;;;6.80;59.30;;;;;;5055596;28;20838;-66
2024/03/10 07:01:30;;;;;;;27.47;20.03;;;6.90;59.30;;;;;;5061481;28;21023;-66
2024/03/10 07:03:56;;;;;;;30.17;19.27;;;6.90;59.30;;;;;;5062533;28;20846;-66
2024/03/10 07:06:24;;;;;;;27.60;19.07;;;7.10;59.50;;;;;;5057272;28;21002;-65
2024/03/10 07:08:51;;;;;;;25.33;18.20;;;7.10;59.50;;;;;;5067562;28;20715;-66
2024/03/10 07:11:19;;;;;;;22.13;16.03;;;7.20;58.90;;;;;;5060515;28;20451;-66
2024/03/10 07:13:46;;;;;;;26.40;15.83;;;7.30;51.40;;;;;;5061709;28;20482;-66
2024/03/10 07:16:13;;;;;;;26.63;15.87;;;7.40;51.30;;;;;;5065634;28;20458;-66
2024/03/10 07:18:41;;;;;;;22.03;15.90;;;7.50;51.50;;;;;;5059881;28;20450;-66
2024/03/10 07:21:08;;;;;;;22.77;16.20;;;7.60;51.40;;;;;;5051550;28;20467;-66
2024/03/10 07:23:35;;;;;;;22.77;14.90;;;7.60;51.40;;;;;;5060650;28;20463;-65
2024/03/10 07:26:02;;;;;;;29.03;15.53;;;7.60;51.50;;;;;;5062802;28;20457;-65
2024/03/10 07:28:31;;;;;;;21.00;15.50;;;7.60;51.40;;;;;;5066178;28;20832;-68
2024/03/10 07:30:59;;;;;;;26.90;17.27;;;7.60;59.80;;;;;;5071279;28;20901;-66
2024/03/10 07:33:26;;;;;;;28.43;19.87;;;7.60;59.90;;;;;;5064248;28;20520;-66
2024/03/10 07:35:53;;;;;;;29.47;20.80;;;7.60;59.90;;;;;;5058723;28;20447;-66
2024/03/10 07:38:20;;;;;;;30.80;22.67;;;7.50;59.80;;;;;;5063151;28;20973;-66
2024/03/10 07:40:47;;;;;;;30.30;23.87;;;7.50;59.80;;;;;;5054975;28;20864;-66
2024/03/10 07:43:15;;;;;;;30.40;26.70;;;7.50;59.80;;;;;;5065655;28;20903;-65
2024/03/10 07:45:44;;;;;;;26.43;20.07;;;7.50;59.80;;;;;;5062748;28;20457;-66
2024/03/10 07:48:10;;;;;;;28.93;18.17;;;7.50;59.80;;;;;;5058300;28;20448;-66
2024/03/10 07:50:37;;;;;;;24.60;18.13;;;7.50;59.80;;;;;;5050851;28;20454;-66
2024/03/10 07:53:04;;;;;;;29.17;18.93;;;7.60;59.90;;;;;;5042894;28;20467;-66
2024/03/10 07:55:31;;;;;;;23.63;16.50;;;7.70;60.00;;;;;;5049817;28;20452;-66
2024/03/10 07:57:58;;;;;;;27.87;19.73;;;7.80;60.00;;;;;;5062462;28;20454;-66
2024/03/10 08:00:26;;;;;;;26.80;17.37;;;8.00;60.20;;;;;;5055272;28;20460;-66
2024/03/10 08:02:54;;;;;;;31.30;18.60;;;8.00;60.00;;;;;;5052247;28;20479;-66
2024/03/10 08:05:21;;;;;;;27.53;20.07;;;8.20;60.40;;;;;;5049449;28;20462;-65
2024/03/10 08:07:49;;;;;;;27.90;19.27;;;8.40;52.80;;;;;;5059757;28;20459;-66
2024/03/10 08:10:17;;;;;;;26.53;17.93;;;8.60;58.30;;;;;;5050842;28;20447;-65
2024/03/10 08:12:46;;;;;;;27.57;17.20;;;8.70;52.40;;;;;;5054291;28;20550;-66
2024/03/10 08:15:13;;;;;;;28.50;17.90;;;8.90;52.50;;;;;;5059467;28;20459;-66
2024/03/10 08:17:41;;;;;;;29.33;15.57;;;9.00;52.40;;;;;;5066247;28;20481;-67
2024/03/10 08:20:13;;;;;;;24.43;14.90;;;9.20;44.20;;;;;;5063065;28;20515;-68
2024/03/10 08:22:41;;;;;;;24.50;15.53;;;9.30;44.30;;;;;;5066005;28;20482;-67
2024/03/10 08:25:09;;;;;;;24.80;14.90;;;9.50;44.40;;;;;;5054764;28;20458;-67
2024/03/10 08:27:36;;;;;;;31.80;18.70;;;9.60;44.50;;;;;;5063782;28;20892;-66
2024/03/10 08:30:04;;;;;;;26.80;16.07;;;9.80;44.50;;;;;;5069168;28;20533;-66
2024/03/10 08:32:30;;;;;;;26.43;15.53;;;10.00;35.00;;;;;;5062655;28;20488;-64
2024/03/10 08:34:58;;;;;;;25.20;14.17;;;10.20;27.20;;;;;;5065668;28;20454;-65
2024/03/10 08:37:27;;;;;;;24.63;13.60;;;10.40;27.20;;;;;;5074494;28;20461;-66
2024/03/10 08:39:55;;;;;;;22.57;13.73;;;10.50;32.60;;;;;;5074588;28;20942;-66
2024/03/10 08:42:24;;;;;;;23.43;12.80;;;10.60;33.90;;;;;;5065589;28;20475;-65
2024/03/10 08:44:52;;;;;;;24.97;15.37;;;10.80;27.50;;;;;;5071321;28;20466;-66
2024/03/10 08:47:18;;;;;;;17.57;11.13;;;11.10;27.80;;;;;;5062001;28;20454;-66
2024/03/10 08:49:45;;;;;;;22.43;11.20;;;11.50;21.00;;;;;;5061002;28;20463;-64
2024/03/10 08:52:12;;;;;;;19.47;11.47;;;12.00;21.20;;;;;;5056193;28;20456;-68
2024/03/10 08:54:41;;;;;;;21.55;13.07;;;12.30;18.00;;;;;;5055867;28;20854;-66
2024/03/10 08:57:09;;;;;;;21.33;12.10;;;12.40;14.20;;;;;;5065127;28;20223;-65
2024/03/10 08:59:36;;;;;;;19.13;11.03;;;12.80;14.60;;;;;;5062888;28;20859;-65
2024/03/10 09:02:02;;;;;;;15.40;9.57;;;13.20;7.70;;;;;;5057009;28;20479;-66
2024/03/10 09:04:30;;;;;;;17.53;10.63;;;13.30;7.40;;;;;;5057982;28;20471;-66
2024/03/10 09:06:57;;;;;;;14.20;9.03;;;13.60;7.70;;;;;;5054293;28;20447;-66
2024/03/10 09:09:24;;;;;;;13.80;7.40;;;13.40;1.00;;;;;;5065395;28;20446;-66
2024/03/10 09:11:52;;;;;;;13.10;7.60;;;13.70;1.00;;;;;;5065673;28;20526;-66
2024/03/10 09:14:19;;;;;;;15.17;8.83;;;13.80;1.00;;;;;;5059747;28;20475;-66
2024/03/10 09:16:46;;;;;;;13.30;7.73;;;13.90;1.00;;;;;;5061828;28;20459;-66
2024/03/10 09:19:14;;;;;;;15.37;7.80;;;14.10;1.00;;;;;;5063330;28;20454;-66
2024/03/10 09:21:42;;;;;;;12.80;7.77;;;14.30;1.00;;;;;;5070198;28;20849;-66
2024/03/10 09:24:10;;;;;;;12.03;7.87;;;14.40;1.00;;;;;;5056531;28;20523;-66
2024/03/10 09:26:39;;;;;;;13.03;7.63;;;14.50;1.00;;;;;;5073472;28;20450;-65
2024/03/10 09:29:07;;;;;;;12.10;7.30;;;14.50;1.00;;;;;;5062936;28;20942;-66
2024/03/10 09:31:34;;;;;;;14.03;7.90;;;14.50;1.00;;;;;;5061064;28;20469;-66
2024/03/10 09:34:03;;;;;;;12.90;7.60;;;14.70;1.00;;;;;;5070431;28;20471;-66
2024/03/10 09:36:30;;;;;;;14.67;8.80;;;14.80;1.00;;;;;;5052962;28;21023;-66
2024/03/10 09:38:59;;;;;;;14.20;8.30;;;15.00;1.00;;;;;;5056073;28;20499;-66
2024/03/10 09:41:29;;;;;;;16.13;8.70;;;15.50;1.00;;;;;;5052640;28;20448;-66
2024/03/10 09:43:58;;;;;;;13.30;7.57;;;16.00;1.00;;;;;;5060114;28;20470;-66
2024/03/10 09:46:27;;;;;;;13.10;8.60;;;15.90;1.00;;;;;;5065226;28;20446;-67
2024/03/10 09:48:54;;;;;;;14.87;8.10;;;16.10;1.00;;;;;;5060274;28;20455;-66
2024/03/10 09:51:22;;;;;;;11.40;6.80;;;16.10;1.00;;;;;;5059090;28;21039;-66
2024/03/10 09:53:50;;;;;;;12.17;8.10;;;16.20;1.00;;;;;;5067617;28;20477;-66
2024/03/10 09:56:17;;;;;;;15.60;8.53;;;16.60;1.00;;;;;;5066152;28;20489;-67
2024/03/10 09:58:47;;;;;;;13.53;7.87;;;16.90;1.00;;;;;;5062905;28;20451;-66
2024/03/10 10:01:18;;;;;;;14.73;8.20;;;16.90;1.00;;;;;;5063183;28;20465;-67
2024/03/10 10:03:49;;;;;;;14.27;9.53;;;16.90;1.00;;;;;;5062559;28;20459;-66
2024/03/10 10:06:18;;;;;;;15.50;8.87;;;16.70;1.00;;;;;;5056792;28;20497;-67
2024/03/10 10:08:45;;;;;;;13.33;8.30;;;16.90;1.00;;;;;;5069229;28;20464;-66
2024/03/10 10:11:13;;;;;;;14.20;8.90;;;17.40;1.00;;;;;;5072875;28;20442;-67
2024/03/10 10:13:42;;;;;;;12.33;8.30;;;18.10;1.00;;;;;;5072116;28;20463;-67
2024/03/10 10:16:09;;;;;;;15.40;8.30;;;18.30;1.00;;;;;;5073082;28;20454;-67
2024/03/10 10:18:37;;;;;;;12.67;8.87;;;18.80;1.00;;;;;;5057148;28;20443;-67
2024/03/10 10:21:07;;;;;;;13.07;8.47;;;18.80;1.00;;;;;;5053510;28;20513;-67
2024/03/10 10:23:35;;;;;;;12.23;8.40;;;19.10;1.00;;;;;;5060321;28;20486;-66
2024/03/10 10:26:09;;;;;;;11.87;7.40;;;18.80;1.00;;;;;;5071730;28;20454;-66
2024/03/10 10:28:37;;;;;;;14.10;8.30;;;18.60;1.00;;;;;;5054493;28;20461;-65
2024/03/10 10:31:10;;;;;;;11.93;7.70;;;19.00;1.00;;;;;;5052795;28;20479;-66
2024/03/10 10:33:38;;;;;;;13.90;9.07;;;18.90;1.00;;;;;;5052954;28;20471;-66
2024/03/10 10:36:07;;;;;;;13.90;7.90;;;19.60;1.00;;;;;;5044187;28;20485;-66
2024/03/10 10:38:37;;;;;;;15.43;9.60;;;19.90;1.00;;;;;;5068587;28;20461;-67
2024/03/10 10:41:05;;;;;;;14.23;9.30;;;19.90;1.00;;;;;;5072384;28;20507;-67
2024/03/10 10:43:37;;;;;;;11.17;7.63;;;19.60;1.00;;;;;;5069580;28;21047;-66
2024/03/10 10:46:05;;;;;;;13.67;8.20;;;19.40;1.00;;;;;;5072189;28;20454;-66
2024/03/10 10:48:34;;;;;;;16.63;9.03;;;19.20;1.00;;;;;;5072497;28;20818;-66
2024/03/10 10:51:01;;;;;;;11.93;8.20;;;19.20;1.00;;;;;;5072206;28;20454;-67
2024/03/10 10:53:31;;;;;;;13.17;7.90;;;19.20;1.00;;;;;;5068274;28;20978;-67
2024/03/10 10:55:59;;;;;;;11.90;7.77;;;19.50;1.00;;;;;;5052823;28;20509;-67
2024/03/10 10:58:31;;;;;;;13.40;9.20;;;19.40;1.00;;;;;;5052242;28;20538;-67
2024/03/10 11:01:04;;;;;;;12.10;8.80;;;18.90;1.00;;;;;;5053399;28;21858;-66
2024/03/10 11:03:33;;;;;;;15.97;8.67;;;18.50;1.00;;;;;;5056027;28;20483;-67
2024/03/10 11:06:27;;;;;;;15.13;9.30;;;18.60;1.00;;;;;;5055333;28;20447;-66
2024/03/10 11:08:56;;;;;;;13.33;8.40;;;19.10;1.00;;;;;;5054415;28;20525;-66
2024/03/10 11:11:45;;;;;;;14.97;10.10;;;19.70;1.00;;;;;;5050566;28;20451;-67
2024/03/10 11:14:13;;;;;;;15.50;8.93;;;19.40;1.00;;;;;;5046785;28;20494;-66
2024/03/10 11:16:40;;;;;;;13.10;8.60;;;19.30;1.00;;;;;;5063291;28;20450;-67
2024/03/10 11:19:18;;;;;;;13.27;8.20;;;19.40;1.00;;;;;;5060786;28;20451;-66
2024/03/10 11:21:50;;;;;;;14.77;9.23;;;19.10;1.00;;;;;;5056574;28;20448;-67
2024/03/10 11:24:21;;;;;;;14.33;9.30;;;19.10;1.00;;;;;;5058504;28;20494;-66
2024/03/10 11:26:49;;;;;;;12.23;8.20;;;19.60;1.00;;;;;;5055998;28;20462;-67
2024/03/10 11:29:26;;;;;;;12.80;7.70;;;19.40;1.00;;;;;;5054534;28;20500;-66
2024/03/10 11:31:58;;;;;;;12.90;9.00;;;20.10;1.00;;;;;;5068678;28;20446;-67
2024/03/10 11:34:25;;;;;;;13.60;8.57;;;20.70;1.00;;;;;;5058904;28;20467;-66
2024/03/10 11:36:52;;;;;;;13.10;8.00;;;20.50;1.00;;;;;;5069839;28;20465;-66
2024/03/10 11:39:21;;;;;;;13.50;8.87;;;20.30;1.00;;;;;;5051462;28;20485;-66
2024/03/10 11:41:49;;;;;;;13.53;8.00;;;20.10;1.00;;;;;;5069755;28;20458;-67
2024/03/10 11:44:16;;;;;;;15.23;8.90;;;19.80;1.00;;;;;;5063996;28;20462;-67
2024/03/10 11:46:43;;;;;;;13.17;9.03;;;19.40;1.00;;;;;;5052504;28;20534;-67
2024/03/10 11:49:11;;;;;;;14.30;9.13;;;19.50;1.00;;;;;;5075655;28;20457;-66
2024/03/10 11:51:39;;;;;;;13.83;8.50;;;20.00;1.00;;;;;;5062400;28;20451;-66
2024/03/10 11:54:11;;;;;;;14.00;8.67;;;20.50;1.00;;;;;;5063661;28;20467;-67
2024/03/10 11:56:42;;;;;;;18.03;9.10;;;20.40;1.00;;;;;;5071919;28;20458;-67
2024/03/10 11:59:11;;;;;;;12.40;8.07;;;20.30;1.00;;;;;;5069230;28;20533;-66
2024/03/10 12:01:39;;;;;;;12.90;8.07;;;20.40;1.00;;;;;;5058844;28;20450;-67
2024/03/10 12:04:09;;;;;;;11.60;7.70;;;21.00;1.00;;;;;;5060450;28;20557;-66
2024/03/10 12:06:37;;;;;;;16.00;9.60;;;22.00;1.00;;;;;;5071223;28;21009;-64
2024/03/10 12:09:12;;;;;;;10.97;8.10;;;21.80;1.00;;;;;;5055391;28;20443;-64
2024/03/10 12:11:41;;;;;;;15.63;8.87;;;22.10;1.00;;;;;;5054591;28;20508;-64
2024/03/10 12:14:11;;;;;;;14.30;9.00;;;22.30;1.00;;;;;;5055246;28;20467;-64
2024/03/10 12:16:38;;;;;;;14.77;9.40;;;21.60;1.00;;;;;;5063370;28;20450;-66
2024/03/10 12:19:06;;;;;;;13.47;7.97;;;21.30;1.00;;;;;;5059571;28;20457;-64
2024/03/10 12:21:33;;;;;;;15.33;9.73;;;21.90;1.00;;;;;;5066607;28;20546;-64
2024/03/10 12:24:03;;;;;;;12.50;7.60;;;22.70;1.00;;;;;;5063424;28;20514;-64
2024/03/10 12:26:32;;;;;;;19.33;10.10;;;22.00;1.00;;;;;;5066676;28;20450;-63
2024/03/10 12:29:00;;;;;;;14.40;8.83;;;21.00;1.00;;;;;;5075080;28;20893;-64
2024/03/10 12:31:27;;;;;;;15.37;9.20;;;21.50;1.00;;;;;;5074842;28;20950;-64
2024/03/10 12:33:55;;;;;;;13.37;7.93;;;20.90;1.00;;;;;;5072592;28;20561;-64
2024/03/10 12:36:22;;;;;;;15.30;8.83;;;19.90;1.00;;;;;;5059622;28;20460;-63
2024/03/10 12:38:49;;;;;;;17.60;10.23;;;19.20;1.00;;;;;;5056278;28;20470;-64
2024/03/10 12:41:18;;;;;;;19.53;9.20;;;18.20;1.00;;;;;;5059891;28;20545;-64
2024/03/10 12:43:45;;;;;;;13.87;8.60;;;17.70;1.00;;;;;;5071041;28;20495;-63
2024/03/10 12:46:17;;;;;;;16.67;10.43;;;17.60;1.00;;;;;;5067376;28;20450;-64
2024/03/10 12:48:44;;;;;;;13.97;9.10;;;17.30;1.00;;;;;;5073167;28;20492;-61
2024/03/10 12:51:11;;;;;;;16.67;9.67;;;17.20;1.00;;;;;;5058679;28;20461;-63
2024/03/10 12:53:39;;;;;;;17.87;9.43;;;17.00;1.00;;;;;;5056724;28;20539;-63
2024/03/10 12:56:08;;;;;;;17.20;9.60;;;17.00;1.00;;;;;;5061978;28;20451;-64
2024/03/10 12:58:36;;;;;;;18.00;9.90;;;17.00;1.00;;;;;;5052746;28;20451;-64
2024/03/10 13:01:03;;;;;;;15.47;9.13;;;17.30;1.00;;;;;;5068423;28;20458;-64
2024/03/10 13:03:33;;;;;;;14.00;9.10;;;17.40;1.00;;;;;;5058525;28;20483;-63
2024/03/10 13:06:00;;;;;;;12.93;7.87;;;17.70;1.00;;;;;;5072557;28;20468;-64
2024/03/10 13:08:28;;;;;;;16.80;9.23;;;18.00;1.00;;;;;;5076719;28;20458;-64
2024/03/10 13:10:55;;;;;;;13.73;8.43;;;18.30;1.00;;;;;;5073608;28;20454;-63
2024/03/10 13:13:23;;;;;;;16.53;11.67;;;18.30;1.00;;;;;;5060950;28;20502;-64